Time;durP1;ratioP1;P1;durP2;ratioP2;P2;SDS_P1;SDS_P2;PMS_P1;PMS_P2;Temp;Humidity;BMP_temperature;BMP_pressure;BME280_temperature;BME280_humidity;BME280_pressure;Samples;Min_cycle;Max_cycle;Signal;HPM_P1;HPM_P2
2022/04/22 00:01:29;;;;;;;;;;;11.30;99.90;;;;;;5012427;28;19909;-69
2022/04/22 00:03:55;;;;;;;;;;;11.30;99.90;;;;;;5012765;28;19910;-69
2022/04/22 00:06:21;;;;;;;;;;;11.30;99.90;;;;;;5012681;28;19957;-68
2022/04/22 00:08:46;;;;;;;;;;;11.40;99.90;;;;;;5012820;28;19916;-69
2022/04/22 00:11:30;;;;;;;;;;;11.40;99.90;;;;;;5012454;28;19910;-68
2022/04/22 00:14:00;;;;;;;;;;;11.40;99.90;;;;;;5012487;28;20023;-69
2022/04/22 00:16:27;;;;;;;;;;;11.40;99.90;;;;;;5012414;28;19961;-69
2022/04/22 00:18:53;;;;;;;;;;;11.30;99.90;;;;;;5012686;28;19909;-68
2022/04/22 00:21:18;;;;;;;;;;;11.30;99.90;;;;;;5010891;28;19916;-69
2022/04/22 00:23:44;;;;;;;;;;;11.30;99.90;;;;;;5012285;28;19919;-69
2022/04/22 00:26:10;;;;;;;;;;;11.30;99.90;;;;;;5012384;28;19914;-68
2022/04/22 00:28:35;;;;;;;;;;;11.30;99.90;;;;;;5012368;28;19910;-68
2022/04/22 00:31:01;;;;;;;;;;;11.40;99.90;;;;;;5010417;28;20081;-69
2022/04/22 00:33:26;;;;;;;;;;;11.40;99.90;;;;;;5012329;28;19910;-68
2022/04/22 00:35:51;;;;;;;;;;;11.40;99.90;;;;;;5011892;28;20016;-68
2022/04/22 00:38:17;;;;;;;;;;;11.40;99.90;;;;;;5011836;28;19909;-68
2022/04/22 00:40:42;;;;;;;;;;;11.40;99.90;;;;;;5011758;28;19910;-69
2022/04/22 00:43:14;;;;;;;;;;;11.40;99.90;;;;;;5012400;28;19916;-68
2022/04/22 00:45:40;;;;;;;;;;;11.30;99.90;;;;;;5012392;28;19936;-68
2022/04/22 00:48:06;;;;;;;;;;;11.20;99.90;;;;;;5012273;28;19909;-69
2022/04/22 00:50:31;;;;;;;;;;;11.30;99.90;;;;;;5011651;28;19909;-68
2022/04/22 00:52:57;;;;;;;;;;;11.40;99.90;;;;;;5011963;28;19909;-68
2022/04/22 00:55:23;;;;;;;;;;;11.40;99.90;;;;;;5016169;28;19916;-68
2022/04/22 00:57:49;;;;;;;;;;;11.50;99.90;;;;;;5016226;28;20309;-68
2022/04/22 01:00:15;;;;;;;;;;;11.40;99.90;;;;;;5015920;28;19983;-68
2022/04/22 01:02:40;;;;;;;;;;;11.30;99.90;;;;;;5016077;28;20004;-69
2022/04/22 01:10:35;;;;;;;;;;;11.30;99.90;;;;;;5015667;28;19933;-69
2022/04/22 01:13:00;;;;;;;;;;;11.40;99.90;;;;;;5015852;28;19910;-70
2022/04/22 01:15:26;;;;;;;;;;;11.10;99.90;;;;;;5015728;28;20383;-68
2022/04/22 01:17:51;;;;;;;;;;;11.30;99.90;;;;;;5015481;28;19914;-68
2022/04/22 01:20:17;;;;;;;;;;;11.20;99.90;;;;;;5015423;28;20474;-68
2022/04/22 01:22:42;;;;;;;;;;;11.30;99.90;;;;;;5015949;28;19956;-68
2022/04/22 01:25:08;;;;;;;;;;;11.20;99.90;;;;;;5015611;28;19952;-68
2022/04/22 01:27:33;;;;;;;;;;;11.20;99.90;;;;;;5015358;28;20394;-68
2022/04/22 01:30:06;;;;;;;;;;;11.10;99.90;;;;;;5015342;28;20479;-69
2022/04/22 01:32:31;;;;;;;;;;;11.10;99.90;;;;;;5015514;28;20556;-69
2022/04/22 01:34:57;;;;;;;;;;;11.20;99.90;;;;;;5015425;28;19918;-69
2022/04/22 01:37:23;;;;;;;;;;;11.10;99.90;;;;;;5015647;28;19987;-69
2022/04/22 01:39:48;;;;;;;;;;;11.10;99.90;;;;;;5015147;28;19909;-69
2022/04/22 01:42:14;;;;;;;;;;;11.10;99.90;;;;;;5015462;28;19917;-68
2022/04/22 01:44:39;;;;;;;;;;;11.00;99.90;;;;;;5015244;28;19932;-69
2022/04/22 01:47:05;;;;;;;;;;;11.00;99.90;;;;;;5015400;28;19917;-68
2022/04/22 01:49:30;;;;;;;;;;;11.00;99.90;;;;;;5014723;28;19999;-69
2022/04/22 01:51:56;;;;;;;;;;;11.00;99.90;;;;;;5015251;28;20343;-69
2022/04/22 01:54:22;;;;;;;;;;;11.00;99.90;;;;;;5015433;28;19909;-70
2022/04/22 01:56:47;;;;;;;;;;;11.00;99.90;;;;;;5015039;28;20282;-69
2022/04/22 01:59:13;;;;;;;;;;;11.00;99.90;;;;;;5014839;28;19971;-70
2022/04/22 02:01:38;;;;;;;;;;;11.00;99.90;;;;;;5014850;28;20367;-70
2022/04/22 02:04:04;;;;;;;;;;;11.00;99.90;;;;;;5014816;28;19920;-70
2022/04/22 02:06:29;;;;;;;;;;;11.10;99.90;;;;;;5013476;28;19913;-69
2022/04/22 02:08:55;;;;;;;;;;;11.00;99.90;;;;;;5014759;28;19909;-68
2022/04/22 02:11:21;;;;;;;;;;;11.10;99.90;;;;;;5014609;28;19917;-69
2022/04/22 02:13:46;;;;;;;;;;;11.10;99.90;;;;;;5014773;28;19913;-69
2022/04/22 02:16:12;;;;;;;;;;;11.10;99.90;;;;;;5014682;28;19913;-69
2022/04/22 02:18:39;;;;;;;;;;;11.10;99.90;;;;;;5014834;28;20299;-69
2022/04/22 02:21:05;;;;;;;;;;;11.10;99.90;;;;;;5014897;28;19910;-69
2022/04/22 02:23:31;;;;;;;;;;;11.10;99.90;;;;;;5014894;28;19916;-70
2022/04/22 02:25:57;;;;;;;;;;;11.10;99.90;;;;;;5014402;28;19913;-69
2022/04/22 02:28:35;;;;;;;;;;;11.10;99.90;;;;;;5014573;28;19913;-70
2022/04/22 02:31:00;;;;;;;;;;;11.10;99.90;;;;;;5014290;28;19909;-70
2022/04/22 02:33:25;;;;;;;;;;;11.10;99.90;;;;;;5014352;28;19971;-68
2022/04/22 02:35:51;;;;;;;;;;;11.10;99.90;;;;;;5014292;28;20286;-71
2022/04/22 02:38:16;;;;;;;;;;;11.00;99.90;;;;;;5085840;22;20134;-66
2022/04/22 02:46:10;;;;;;;;;;;11.00;99.90;;;;;;5054147;28;20028;-68
2022/04/22 02:48:35;;;;;;;;;;;11.00;99.90;;;;;;5054014;28;19952;-69
2022/04/22 02:51:01;;;;;;;;;;;11.10;99.90;;;;;;5053892;28;20011;-69
2022/04/22 02:53:26;;;;;;;;;;;11.10;99.90;;;;;;5053904;28;19916;-67
2022/04/22 02:55:52;;;;;;;;;;;11.00;99.90;;;;;;5054023;28;19909;-68
2022/04/22 02:58:18;;;;;;;;;;;11.10;99.90;;;;;;5053838;28;19966;-67
2022/04/22 03:00:44;;;;;;;;;;;10.90;99.90;;;;;;5053419;28;19916;-69
2022/04/22 03:03:09;;;;;;;;;;;10.80;99.90;;;;;;5053612;28;20366;-67
2022/04/22 03:05:34;;;;;;;;;;;10.90;99.90;;;;;;5053925;28;20015;-66
2022/04/22 03:08:01;;;;;;;;;;;10.90;99.90;;;;;;5053610;28;19909;-68
2022/04/22 03:10:26;;;;;;;;;;;11.00;99.90;;;;;;5053768;28;20485;-67
2022/04/22 03:12:52;;;;;;;;;;;11.00;99.90;;;;;;5054112;28;19987;-67
2022/04/22 03:15:17;;;;;;;;;;;11.00;99.90;;;;;;5053602;28;20373;-67
2022/04/22 03:17:43;;;;;;;;;;;10.90;99.90;;;;;;5052367;28;20259;-67
2022/04/22 03:20:09;;;;;;;;;;;10.80;99.90;;;;;;5053422;28;19908;-68
2022/04/22 03:22:36;;;;;;;;;;;10.90;99.90;;;;;;5053662;28;19915;-68
2022/04/22 03:25:01;;;;;;;;;;;10.90;99.90;;;;;;5053414;28;19947;-67
2022/04/22 03:27:27;;;;;;;;;;;10.90;99.90;;;;;;5053267;28;19963;-67
2022/04/22 03:29:52;;;;;;;;;;;10.80;99.90;;;;;;5053144;28;19909;-68
2022/04/22 03:32:18;;;;;;;;;;;10.70;99.90;;;;;;5053119;28;19909;-67
2022/04/22 03:34:43;;;;;;;;;;;10.80;99.90;;;;;;5053297;28;19915;-66
2022/04/22 03:37:09;;;;;;;;;;;10.80;99.90;;;;;;5053097;28;19925;-66
2022/04/22 03:39:34;;;;;;;;;;;10.70;99.90;;;;;;5053044;28;19909;-66
2022/04/22 03:42:00;;;;;;;;;;;10.80;99.90;;;;;;5053054;28;19909;-68
2022/04/22 03:44:26;;;;;;;;;;;10.80;99.90;;;;;;5053076;28;19956;-68
2022/04/22 03:46:51;;;;;;;;;;;10.70;99.90;;;;;;5052983;28;20007;-68
2022/04/22 03:49:17;;;;;;;;;;;10.70;99.90;;;;;;5052886;28;20412;-68
2022/04/22 03:51:42;;;;;;;;;;;10.70;99.90;;;;;;5053160;28;20293;-67
2022/04/22 03:54:08;;;;;;;;;;;10.70;99.90;;;;;;5055628;28;20050;-68
2022/04/22 03:59:18;;;;;;;;;;;10.60;99.90;;;;;;5053018;28;20500;-67
2022/04/22 04:01:43;;;;;;;;;;;10.50;99.90;;;;;;5053216;28;19995;-67
2022/04/22 04:04:09;;;;;;;;;;;10.40;99.90;;;;;;5052927;28;19909;-68
2022/04/22 04:06:35;;;;;;;;;;;10.40;99.90;;;;;;5053052;28;19920;-68
2022/04/22 04:17:14;;;;;;;;;;;10.30;99.90;;;;;;5053154;28;20015;-67
2022/04/22 04:25:09;;;;;;;;;;;10.20;99.90;;;;;;5053094;28;19916;-67
2022/04/22 04:27:36;;;;;;;;;;;10.10;99.90;;;;;;5052348;28;20286;-66
2022/04/22 04:30:03;;;;;;;;;;;10.00;99.90;;;;;;5052108;28;19908;-66
2022/04/22 04:32:28;;;;;;;;;;;10.00;99.90;;;;;;5051145;28;20000;-66
2022/04/22 04:34:53;;;;;;;;;;;10.00;99.90;;;;;;5052747;28;19951;-66
2022/04/22 04:37:19;;;;;;;;;;;10.10;99.90;;;;;;5051989;28;19917;-67
2022/04/22 04:39:44;;;;;;;;;;;10.20;99.90;;;;;;5052399;28;19916;-66
2022/04/22 04:42:10;;;;;;;;;;;10.30;99.90;;;;;;5052526;28;19916;-69
2022/04/22 04:44:36;;;;;;;;;;;10.40;99.90;;;;;;5053036;28;20022;-67
2022/04/22 04:47:02;;;;;;;;;;;10.40;99.90;;;;;;5052241;28;19991;-68
2022/04/22 04:49:27;;;;;;;;;;;10.50;99.90;;;;;;5051149;28;20420;-67
2022/04/22 04:51:53;;;;;;;;;;;10.40;99.90;;;;;;5052261;28;19917;-67
2022/04/22 04:54:19;;;;;;;;;;;10.50;99.90;;;;;;5052157;28;19909;-67
2022/04/22 04:56:44;;;;;;;;;;;10.50;99.90;;;;;;5052091;28;20290;-67
2022/04/22 04:59:10;;;;;;;;;;;10.50;99.90;;;;;;5051982;28;19962;-67
2022/04/22 05:01:35;;;;;;;;;;;10.50;99.90;;;;;;5052604;28;19909;-68
2022/04/22 05:04:00;;;;;;;;;;;10.50;99.90;;;;;;5053009;28;19940;-68
2022/04/22 05:06:26;;;;;;;;;;;10.50;99.90;;;;;;5056923;28;19966;-68
2022/04/22 05:08:51;;;;;;;;;;;10.60;99.90;;;;;;5052621;28;19909;-68
2022/04/22 05:11:17;;;;;;;;;;;10.60;99.90;;;;;;5052132;28;20016;-66
2022/04/22 05:13:42;;;;;;;;;;;10.70;99.90;;;;;;5051926;28;20007;-68
2022/04/22 05:16:07;;;;;;;;;;;10.70;99.90;;;;;;5052300;28;19919;-67
2022/04/22 05:18:33;;;;;;;;;;;10.60;99.90;;;;;;5052188;28;20289;-68
2022/04/22 05:20:59;;;;;;;;;;;10.60;99.90;;;;;;5051932;28;19909;-67
2022/04/22 05:23:24;;;;;;;;;;;10.70;99.90;;;;;;5051580;28;19909;-67
2022/04/22 05:25:50;;;;;;;;;;;10.70;99.90;;;;;;5061038;28;19912;-67
2022/04/22 05:28:15;;;;;;;;;;;10.80;99.90;;;;;;5071130;28;19912;-69
2022/04/22 05:33:24;;;;;;;;;;;10.90;99.90;;;;;;5070964;28;19919;-67
2022/04/22 05:35:50;;;;;;;;;;;11.10;99.90;;;;;;5070644;28;19908;-67
2022/04/22 05:38:16;;;;;;;;;;;11.10;99.90;;;;;;5069035;28;19923;-68
2022/04/22 05:40:46;;;;;;;;;;;11.20;99.90;;;;;;5073085;28;19908;-67
2022/04/22 05:43:11;;;;;;;;;;;11.20;99.90;;;;;;5075032;28;19915;-68
2022/04/22 05:45:37;;;;;;;;;;;11.20;99.90;;;;;;5074126;28;19917;-67
2022/04/22 05:48:02;;;;;;;;;;;11.40;99.90;;;;;;5074394;28;19995;-67
2022/04/22 05:50:28;;;;;;;;;;;11.50;99.90;;;;;;5073445;28;20449;-66
2022/04/22 05:52:54;;;;;;;;;;;11.50;99.90;;;;;;5074540;28;20298;-67
2022/04/22 05:55:21;;;;;;;;;;;11.50;99.90;;;;;;5068167;28;19962;-67
2022/04/22 05:57:47;;;;;;;;;;;11.60;99.90;;;;;;5054003;28;20392;-67
2022/04/22 06:00:14;;;;;;;;;;;11.70;99.90;;;;;;5054684;28;19909;-67
2022/04/22 06:02:41;;;;;;;;;;;11.80;99.90;;;;;;5053908;28;19913;-66
2022/04/22 06:05:07;;;;;;;;;;;11.80;99.90;;;;;;5053063;28;19909;-68
2022/04/22 06:07:32;;;;;;;;;;;11.90;99.90;;;;;;5051826;28;19919;-67
2022/04/22 06:12:42;;;;;;;;;;;11.70;99.90;;;;;;5053122;28;19916;-66
2022/04/22 06:15:08;;;;;;;;;;;11.70;99.90;;;;;;5053246;28;19912;-68
2022/04/22 06:17:33;;;;;;;;;;;11.80;99.90;;;;;;5052833;28;20394;-66
2022/04/22 06:19:59;;;;;;;;;;;11.90;99.90;;;;;;5055036;28;19916;-67
2022/04/22 06:22:25;;;;;;;;;;;11.90;99.90;;;;;;5054997;28;19962;-68
2022/04/22 06:24:51;;;;;;;;;;;12.00;99.90;;;;;;5055167;28;19909;-68
2022/04/22 06:27:26;;;;;;;;;;;12.10;99.90;;;;;;5054776;28;19916;-68
2022/04/22 06:29:53;;;;;;;;;;;12.10;99.90;;;;;;5054483;28;20316;-67
2022/04/22 06:32:18;;;;;;;;;;;12.20;99.90;;;;;;5054562;28;19919;-67
2022/04/22 06:34:47;;;;;;;;;;;12.30;99.90;;;;;;5054662;28;19999;-67
2022/04/22 06:37:13;;;;;;;;;;;12.30;99.90;;;;;;5053967;28;20284;-68
2022/04/22 06:47:52;;;;;;;;;;;12.20;99.90;;;;;;5054329;28;20491;-69
2022/04/22 06:50:19;;;;;;;;;;;12.20;99.90;;;;;;5054103;28;19916;-67
2022/04/22 06:52:46;;;;;;;;;;;12.20;99.90;;;;;;5053999;28;19955;-68
2022/04/22 06:55:13;;;;;;;;;;;12.30;99.90;;;;;;5053064;28;19931;-68
2022/04/22 06:57:39;;;;;;;;;;;12.50;99.90;;;;;;5053949;28;19909;-67
2022/04/22 07:00:05;;;;;;;;;;;12.40;99.90;;;;;;5053691;28;20419;-67
2022/04/22 07:02:31;;;;;;;;;;;12.40;99.90;;;;;;5054199;28;19999;-68
2022/04/22 07:04:57;;;;;;;;;;;12.50;99.90;;;;;;5054164;28;20066;-68
2022/04/22 07:07:22;;;;;;;;;;;12.60;99.90;;;;;;5053839;28;20544;-67
2022/04/22 07:09:48;;;;;;;;;;;12.70;99.90;;;;;;5053454;28;20336;-67
2022/04/22 07:12:14;;;;;;;;;;;12.80;99.90;;;;;;5053722;28;19908;-67
2022/04/22 07:14:42;;;;;;;;;;;12.90;99.90;;;;;;5052550;28;19913;-69
2022/04/22 07:17:09;;;;;;;;;;;12.90;99.90;;;;;;5053542;28;20324;-67
2022/04/22 07:19:34;;;;;;;;;;;13.10;99.90;;;;;;5053553;28;19913;-68
2022/04/22 07:22:00;;;;;;;;;;;13.10;99.90;;;;;;5053597;28;19915;-68
2022/04/22 07:24:26;;;;;;;;;;;13.10;99.90;;;;;;5053706;28;20362;-68
2022/04/22 07:26:52;;;;;;;;;;;13.20;99.90;;;;;;5053414;28;19964;-69
2022/04/22 07:29:18;;;;;;;;;;;13.30;99.90;;;;;;5053313;28;19912;-68
2022/04/22 07:31:43;;;;;;;;;;;13.20;99.90;;;;;;5052261;28;20366;-68
2022/04/22 07:34:09;;;;;;;;;;;13.30;99.90;;;;;;5052187;28;19913;-68
2022/04/22 07:36:35;;;;;;;;;;;13.20;99.90;;;;;;5053896;28;20319;-67
2022/04/22 07:39:04;;;;;;;;;;;13.20;99.90;;;;;;5053776;28;19959;-68
2022/04/22 07:41:31;;;;;;;;;;;13.30;99.90;;;;;;5053891;28;19908;-68
2022/04/22 07:46:48;;;;;;;;;;;13.60;99.90;;;;;;5053253;28;19959;-68
2022/04/22 07:49:14;;;;;;;;;;;13.40;99.90;;;;;;5053338;28;19909;-68
2022/04/22 07:51:40;;;;;;;;;;;13.60;99.90;;;;;;5053109;28;19909;-67
2022/04/22 07:54:07;;;;;;;;;;;13.70;99.90;;;;;;5052976;28;20070;-68
2022/04/22 07:56:33;;;;;;;;;;;13.90;99.90;;;;;;5051788;28;19909;-66
2022/04/22 07:58:58;;;;;;;;;;;14.00;99.90;;;;;;5053079;28;19935;-67
2022/04/22 08:01:24;;;;;;;;;;;14.00;99.90;;;;;;5052473;28;19972;-68
2022/04/22 08:03:50;;;;;;;;;;;14.00;99.90;;;;;;5052517;28;19931;-69
2022/04/22 08:06:15;;;;;;;;;;;14.10;99.90;;;;;;5052768;28;19921;-68
2022/04/22 08:08:41;;;;;;;;;;;14.20;99.90;;;;;;5052774;28;20115;-68
2022/04/22 08:11:06;;;;;;;;;;;14.30;99.90;;;;;;5052662;28;19952;-70
2022/04/22 08:13:32;;;;;;;;;;;14.30;99.90;;;;;;5052873;28;19916;-68
2022/04/22 08:15:58;;;;;;;;;;;14.40;99.90;;;;;;5052596;28;20324;-68
2022/04/22 08:18:24;;;;;;;;;;;14.40;99.90;;;;;;5053024;28;19908;-67
2022/04/22 08:20:49;;;;;;;;;;;14.40;99.90;;;;;;5052310;28;19908;-69
2022/04/22 08:23:16;;;;;;;;;;;14.20;99.90;;;;;;5052837;28;19966;-69
2022/04/22 08:25:42;;;;;;;;;;;14.20;99.90;;;;;;5052461;28;19952;-68
2022/04/22 08:28:07;;;;;;;;;;;13.90;99.90;;;;;;5052819;28;19909;-68
2022/04/22 08:30:35;;;;;;;;;;;13.90;99.90;;;;;;5052418;28;19909;-69
2022/04/22 08:33:01;;;;;;;;;;;14.00;99.90;;;;;;5053370;28;19915;-69
2022/04/22 08:35:27;;;;;;;;;;;13.90;99.90;;;;;;5050987;28;20362;-68
2022/04/22 08:37:53;;;;;;;;;;;14.00;99.90;;;;;;5068459;22;19936;-70
2022/04/22 08:40:18;;;;;;;;;;;14.10;99.90;;;;;;5040156;28;19925;-69
2022/04/22 08:42:46;;;;;;;;;;;14.20;99.90;;;;;;5031818;28;19909;-70
2022/04/22 08:45:11;;;;;;;;;;;14.30;99.90;;;;;;5031599;28;20346;-70
2022/04/22 08:50:26;;;;;;;;;;;14.20;99.90;;;;;;5021089;28;19963;-70
2022/04/22 08:52:56;;;;;;;;;;;14.30;99.90;;;;;;5031496;28;19909;-70
2022/04/22 08:55:23;;;;;;;;;;;14.30;99.90;;;;;;5031499;28;19970;-69
2022/04/22 08:57:49;;;;;;;;;;;14.30;99.90;;;;;;5031221;28;20116;-70
2022/04/22 09:00:14;;;;;;;;;;;14.40;99.90;;;;;;5031274;28;19913;-70
2022/04/22 09:02:40;;;;;;;;;;;14.20;99.90;;;;;;5031649;28;19909;-71
2022/04/22 09:05:07;;;;;;;;;;;14.20;99.90;;;;;;5030034;28;20008;-70
2022/04/22 09:07:32;;;;;;;;;;;14.20;99.90;;;;;;5031792;28;20382;-70
2022/04/22 09:09:58;;;;;;;;;;;14.30;99.90;;;;;;5031164;28;19916;-69
2022/04/22 09:12:24;;;;;;;;;;;14.40;99.90;;;;;;5031167;28;19909;-69
2022/04/22 09:14:54;;;;;;;;;;;14.50;99.90;;;;;;5032822;28;20425;-71
2022/04/22 09:17:30;;;;;;;;;;;14.50;99.90;;;;;;5035348;28;20313;-69
2022/04/22 09:19:57;;;;;;;;;;;14.40;99.90;;;;;;5035317;28;19909;-70
2022/04/22 09:22:27;;;;;;;;;;;14.20;99.50;;;;;;5035885;28;19932;-71
2022/04/22 09:24:53;;;;;;;;;;;14.40;99.70;;;;;;5034593;28;19913;-70
2022/04/22 09:27:19;;;;;;;;;;;14.40;99.20;;;;;;5035178;28;19917;-69
2022/04/22 09:29:52;;;;;;;;;;;14.50;98.90;;;;;;5034830;28;19932;-70
2022/04/22 09:32:22;;;;;;;;;;;14.50;98.30;;;;;;5035027;28;19916;-69
2022/04/22 09:34:47;;;;;;;;;;;14.40;98.40;;;;;;5034805;28;19909;-69
2022/04/22 09:42:47;;;;;;;;;;;14.80;97.20;;;;;;5035288;28;19917;-69
2022/04/22 09:45:12;;;;;;;;;;;15.20;96.30;;;;;;5035284;28;19916;-70
2022/04/22 09:47:39;;;;;;;;;;;15.20;95.70;;;;;;5034750;28;19989;-70
2022/04/22 09:50:08;;;;;;;;;;;15.20;95.20;;;;;;5034918;28;19916;-71
2022/04/22 09:52:36;;;;;;;;;;;15.20;94.60;;;;;;5034547;28;20025;-70
2022/04/22 09:55:07;;;;;;;;;;;15.10;94.10;;;;;;5035337;28;20016;-69
2022/04/22 09:57:52;;;;;;;;;;;15.10;94.40;;;;;;5034983;28;19910;-70
2022/04/22 10:00:18;;;;;;;;;;;15.20;93.90;;;;;;5049636;28;19909;-70
2022/04/22 10:02:45;;;;;;;;;;;15.30;93.70;;;;;;5034569;28;19992;-70
2022/04/22 10:05:12;;;;;;;;;;;15.40;93.60;;;;;;5034762;28;19910;-70
2022/04/22 10:07:38;;;;;;;;;;;15.40;93.50;;;;;;5034468;28;19914;-69
2022/04/22 10:10:04;;;;;;;;;;;15.40;93.30;;;;;;5034243;28;19909;-68
2022/04/22 10:12:30;;;;;;;;;;;15.50;92.90;;;;;;5034552;28;19909;-69
2022/04/22 10:14:57;;;;;;;;;;;15.40;92.40;;;;;;5034834;28;20393;-69
2022/04/22 10:17:23;;;;;;;;;;;15.50;92.20;;;;;;5033113;28;19913;-70
2022/04/22 10:19:49;;;;;;;;;;;15.40;91.90;;;;;;5034315;28;20011;-70
2022/04/22 10:22:15;;;;;;;;;;;15.60;92.20;;;;;;5034399;28;19913;-69
2022/04/22 10:24:40;;;;;;;;;;;16.00;91.80;;;;;;5034714;28;19917;-71
2022/04/22 10:27:07;;;;;;;;;;;16.10;91.20;;;;;;5033383;28;20043;-70
2022/04/22 10:29:34;;;;;;;;;;;16.40;90.80;;;;;;5034397;28;19948;-69
2022/04/22 10:31:59;;;;;;;;;;;16.60;90.50;;;;;;5034506;28;19913;-70
2022/04/22 10:34:41;;;;;;;;;;;16.90;90.50;;;;;;5034039;28;20385;-70
2022/04/22 10:37:19;;;;;;;;;;;17.10;89.20;;;;;;5033878;28;20016;-70
2022/04/22 10:39:48;;;;;;;;;;;17.30;89.10;;;;;;5033907;28;19920;-70
2022/04/22 10:42:15;;;;;;;;;;;17.30;88.00;;;;;;5034009;28;19909;-70
2022/04/22 10:47:38;;;;;;;;;;;17.80;87.70;;;;;;5034455;28;20018;-70
2022/04/22 10:50:22;;;;;;;;;;;18.00;88.90;;;;;;5034146;28;19909;-71
2022/04/22 10:53:04;;;;;;;;;;;18.10;90.00;;;;;;5033804;28;20000;-70
2022/04/22 10:55:30;;;;;;;;;;;18.20;90.10;;;;;;5033812;28;19910;-70
2022/04/22 10:58:15;;;;;;;;;;;17.70;90.70;;;;;;5033978;28;19936;-70
2022/04/22 11:00:43;;;;;;;;;;;17.70;90.80;;;;;;5034091;28;19909;-70
2022/04/22 11:03:16;;;;;;;;;;;17.50;91.10;;;;;;5034079;28;19975;-69
2022/04/22 11:05:46;;;;;;;;;;;17.60;91.10;;;;;;5033600;28;19913;-69
2022/04/22 11:08:42;;;;;;;;;;;17.70;90.60;;;;;;5033976;28;19916;-68
2022/04/22 11:11:09;;;;;;;;;;;17.20;90.70;;;;;;4991307;28;19910;-68
2022/04/22 11:13:40;;;;;;;;;;;16.90;90.70;;;;;;4991632;28;19913;-69
2022/04/22 11:16:13;;;;;;;;;;;16.70;91.20;;;;;;4991677;28;19910;-69
2022/04/22 11:18:41;;;;;;;;;;;16.60;91.40;;;;;;4991855;28;20162;-69
2022/04/22 11:21:33;;;;;;;;;;;16.60;91.70;;;;;;4991470;28;20445;-69
2022/04/22 11:23:58;;;;;;;;;;;16.60;91.40;;;;;;4989424;28;19913;-69
2022/04/22 11:26:24;;;;;;;;;;;16.60;91.40;;;;;;4991800;28;20286;-69
2022/04/22 11:28:50;;;;;;;;;;;16.50;91.50;;;;;;4991247;28;19914;-69
2022/04/22 11:31:18;;;;;;;;;;;16.60;91.60;;;;;;4990971;28;20287;-70
2022/04/22 11:33:45;;;;;;;;;;;16.60;91.60;;;;;;4991445;28;20438;-69
2022/04/22 11:36:10;;;;;;;;;;;16.70;91.60;;;;;;4991090;28;19957;-69
2022/04/22 11:38:44;;;;;;;;;;;16.60;91.40;;;;;;4991343;28;19976;-69
2022/04/22 11:41:13;;;;;;;;;;;16.60;91.40;;;;;;4991051;28;19917;-70
2022/04/22 11:43:38;;;;;;;;;;;16.80;91.30;;;;;;4991421;28;20367;-68
2022/04/22 11:46:04;;;;;;;;;;;16.90;90.80;;;;;;4990866;28;19920;-70
2022/04/22 11:48:30;;;;;;;;;;;17.00;90.40;;;;;;5029511;28;20005;-71
2022/04/22 11:50:59;;;;;;;;;;;17.00;90.20;;;;;;5032845;28;19909;-71
2022/04/22 11:53:26;;;;;;;;;;;17.30;90.20;;;;;;5032849;28;19916;-70
2022/04/22 11:55:52;;;;;;;;;;;17.40;89.70;;;;;;5033033;28;19917;-69
2022/04/22 11:58:23;;;;;;;;;;;17.00;90.90;;;;;;5032762;28;20003;-72
2022/04/22 12:06:18;;;;;;;;;;;17.10;92.20;;;;;;5032639;28;19920;-69
2022/04/22 12:08:50;;;;;;;;;;;17.10;92.50;;;;;;5032224;28;19909;-70
2022/04/22 12:11:16;;;;;;;;;;;17.00;92.80;;;;;;5032400;28;20000;-70
2022/04/22 12:13:41;;;;;;;;;;;16.80;93.30;;;;;;5032826;28;20287;-70
2022/04/22 12:16:07;;;;;;;;;;;16.60;93.80;;;;;;5032456;28;19916;-70
2022/04/22 12:18:35;;;;;;;;;;;16.60;94.00;;;;;;5032484;28;19909;-68
2022/04/22 12:21:02;;;;;;;;;;;16.60;94.30;;;;;;5030915;28;19909;-70
2022/04/22 12:23:38;;;;;;;;;;;16.50;94.40;;;;;;5032535;28;20042;-69
2022/04/22 12:26:04;;;;;;;;;;;16.40;94.50;;;;;;5032169;28;19917;-70
2022/04/22 12:28:29;;;;;;;;;;;16.20;94.50;;;;;;5032393;28;19917;-70
2022/04/22 12:30:54;;;;;;;;;;;16.10;95.00;;;;;;5032065;28;19909;-70
2022/04/22 12:33:23;;;;;;;;;;;16.20;95.10;;;;;;5032682;28;19967;-69
2022/04/22 12:35:49;;;;;;;;;;;16.40;94.80;;;;;;5032618;28;20309;-70
2022/04/22 12:38:16;;;;;;;;;;;16.40;94.70;;;;;;5032176;28;19931;-69
2022/04/22 12:40:45;;;;;;;;;;;16.20;94.90;;;;;;5030589;28;19910;-71
2022/04/22 12:43:31;;;;;;;;;;;16.20;95.10;;;;;;5032608;28;19909;-69
2022/04/22 12:52:08;;;;;;;;;;;16.60;94.40;;;;;;5032487;28;20007;-69
2022/04/22 12:54:34;;;;;;;;;;;16.70;94.40;;;;;;5031814;28;20011;-71
2022/04/22 12:57:00;;;;;;;;;;;16.50;94.70;;;;;;5031893;28;19984;-71
2022/04/22 12:59:44;;;;;;;;;;;16.20;95.10;;;;;;5031788;28;19909;-70
2022/04/22 13:02:10;;;;;;;;;;;16.30;95.00;;;;;;5031568;28;20400;-70
2022/04/22 13:04:49;;;;;;;;;;;16.10;95.20;;;;;;5031658;28;19953;-70
2022/04/22 13:07:14;;;;;;;;;;;16.20;95.40;;;;;;5031729;28;20404;-70
2022/04/22 13:09:39;;;;;;;;;;;16.40;94.90;;;;;;5031498;28;19909;-70
2022/04/22 13:12:05;;;;;;;;;;;16.50;94.70;;;;;;5031823;28;20297;-70
2022/04/22 13:14:30;;;;;;;;;;;16.70;94.10;;;;;;5031547;28;19909;-69
2022/04/22 13:16:56;;;;;;;;;;;16.90;94.00;;;;;;5030355;28;19963;-69
2022/04/22 13:19:21;;;;;;;;;;;17.00;94.10;;;;;;5031445;28;19979;-70
2022/04/22 13:21:47;;;;;;;;;;;17.10;94.30;;;;;;5031651;28;19996;-69
2022/04/22 13:24:12;;;;;;;;;;;17.00;94.10;;;;;;5031393;28;19909;-69
2022/04/22 13:26:38;;;;;;;;;;;17.10;94.10;;;;;;5031219;28;19975;-69
2022/04/22 13:29:06;;;;;;;;;;;17.10;94.10;;;;;;5031452;28;19916;-69
2022/04/22 13:31:33;;;;;;;;;;;17.10;94.30;;;;;;5031390;28;19909;-69
2022/04/22 13:33:59;;;;;;;;;;;16.80;94.40;;;;;;5031193;28;19948;-69
2022/04/22 13:36:25;;;;;;;;;;;17.00;94.60;;;;;;5030786;28;20366;-70
2022/04/22 13:38:50;;;;;;;;;;;17.30;94.10;;;;;;5031331;28;19970;-69
2022/04/22 13:41:16;;;;;;;;;;;17.60;93.40;;;;;;5031253;28;20009;-69
2022/04/22 13:43:43;;;;;;;;;;;17.80;93.00;;;;;;5031345;28;19910;-70
2022/04/22 13:54:21;;;;;;;;;;;17.50;93.20;;;;;;5031324;28;20358;-70
2022/04/22 13:56:46;;;;;;;;;;;17.50;92.50;;;;;;5031645;28;19909;-70
2022/04/22 13:59:12;;;;;;;;;;;17.80;92.30;;;;;;5030714;28;19920;-70
2022/04/22 14:01:37;;;;;;;;;;;18.10;91.80;;;;;;5032146;28;19913;-69
2022/04/22 14:04:03;;;;;;;;;;;18.30;91.20;;;;;;5034514;28;19916;-70
2022/04/22 14:06:29;;;;;;;;;;;18.50;90.70;;;;;;5034443;28;19940;-70
2022/04/22 14:08:54;;;;;;;;;;;18.70;90.50;;;;;;5034481;28;20035;-70
2022/04/22 14:11:20;;;;;;;;;;;18.80;90.40;;;;;;5034475;28;19909;-69
2022/04/22 14:13:45;;;;;;;;;;;18.90;90.20;;;;;;5034453;28;19999;-69
2022/04/22 14:16:10;;;;;;;;;;;18.90;90.00;;;;;;5036314;28;19916;-70
2022/04/22 14:18:37;;;;;;;;;;;18.90;89.90;;;;;;5035467;28;20251;-70
2022/04/22 14:21:03;;;;;;;;;;;19.00;89.50;;;;;;5036077;28;19915;-71
2022/04/22 14:23:32;;;;;;;;;;;18.80;88.90;;;;;;5034367;28;19913;-71
2022/04/22 14:25:57;;;;;;;;;;;18.90;89.20;;;;;;5034022;28;19917;-71
2022/04/22 14:28:24;;;;;;;;;;;19.20;89.30;;;;;;5034059;28;19919;-71
2022/04/22 14:30:49;;;;;;;;;;;19.40;88.70;;;;;;5033910;28;19966;-71
2022/04/22 14:33:15;;;;;;;;;;;19.50;88.00;;;;;;5034347;28;19913;-70
2022/04/22 14:35:40;;;;;;;;;;;19.40;88.30;;;;;;5034375;28;19908;-69
2022/04/22 14:38:06;;;;;;;;;;;19.40;89.10;;;;;;5058357;22;19934;-68
2022/04/22 14:40:31;;;;;;;;;;;19.40;88.90;;;;;;5065145;28;19917;-69
2022/04/22 14:42:57;;;;;;;;;;;19.40;89.20;;;;;;5054354;28;20293;-68
2022/04/22 14:45:22;;;;;;;;;;;19.40;87.90;;;;;;5054474;28;19909;-66
2022/04/22 14:47:48;;;;;;;;;;;19.20;88.60;;;;;;5054230;28;19994;-70
2022/04/22 14:50:14;;;;;;;;;;;19.50;88.40;;;;;;5053820;28;19909;-67
2022/04/22 14:52:40;;;;;;;;;;;19.90;87.60;;;;;;5057226;28;20004;-68
2022/04/22 14:55:06;;;;;;;;;;;20.40;86.80;;;;;;5054951;28;19971;-67
2022/04/22 14:57:32;;;;;;;;;;;20.70;85.00;;;;;;5054091;28;19912;-67
2022/04/22 14:59:57;;;;;;;;;;;20.90;84.10;;;;;;5053624;28;20590;-68
2022/04/22 15:02:22;;;;;;;;;;;21.10;83.50;;;;;;5053913;28;19959;-68
2022/04/22 15:04:49;;;;;;;;;;;21.30;83.20;;;;;;5054019;28;20289;-68
2022/04/22 15:07:14;;;;;;;;;;;21.30;82.50;;;;;;5054010;28;19916;-68
2022/04/22 15:09:41;;;;;;;;;;;21.40;82.00;;;;;;5053081;28;19954;-67
2022/04/22 15:12:07;;;;;;;;;;;21.40;81.30;;;;;;5053366;28;19916;-68
2022/04/22 15:14:32;;;;;;;;;;;21.40;80.70;;;;;;5062385;28;20381;-68
2022/04/22 15:16:58;;;;;;;;;;;21.50;79.60;;;;;;5055660;28;19913;-69
2022/04/22 15:24:51;;;;;;;;;;;21.10;79.60;;;;;;5053395;28;19962;-69
2022/04/22 15:27:17;;;;;;;;;;;20.70;79.60;;;;;;5053398;28;19916;-68
2022/04/22 15:29:42;;;;;;;;;;;20.20;80.70;;;;;;5051516;28;20706;-67
2022/04/22 15:32:07;;;;;;;;;;;20.20;81.70;;;;;;5073131;28;19955;-68
2022/04/22 15:34:34;;;;;;;;;;;20.20;81.50;;;;;;5073897;28;19955;-67